Time;durP1;ratioP1;P1;durP2;ratioP2;P2;SDS_P1;SDS_P2;PMS_P1;PMS_P2;Temp;Humidity;BMP_temperature;BMP_pressure;BME280_temperature;BME280_humidity;BME280_pressure;Samples;Min_cycle;Max_cycle;Signal;HPM_P1;HPM_P2
2023/08/12 00:00:26;;;;;;;10.82;6.57;;;21.70;99.90;;;;;;5141847;27;20217;-81
2023/08/12 00:02:55;;;;;;;9.85;6.40;;;21.70;99.90;;;;;;5121740;27;20194;-81
2023/08/12 00:05:22;;;;;;;8.73;6.13;;;21.70;99.90;;;;;;5129211;27;20285;-82
2023/08/12 00:07:49;;;;;;;9.93;6.03;;;21.60;99.90;;;;;;5143939;27;20210;-81
2023/08/12 00:10:16;;;;;;;10.38;6.75;;;21.60;99.90;;;;;;5134081;27;20198;-82
2023/08/12 00:12:43;;;;;;;11.48;6.90;;;21.60;99.90;;;;;;5132974;27;20206;-82
2023/08/12 00:15:10;;;;;;;11.70;6.82;;;21.60;99.90;;;;;;5151273;27;20270;-82
2023/08/12 00:17:37;;;;;;;11.02;6.82;;;21.60;99.90;;;;;;5153633;27;20289;-81
2023/08/12 00:20:06;;;;;;;11.43;6.45;;;21.60;99.90;;;;;;5134889;27;20234;-82
2023/08/12 00:22:32;;;;;;;12.55;7.57;;;21.60;99.90;;;;;;5126864;27;20205;-82
2023/08/12 00:25:00;;;;;;;12.65;6.88;;;21.60;99.90;;;;;;5150365;27;20199;-82
2023/08/12 00:27:27;;;;;;;11.23;7.28;;;21.60;99.90;;;;;;5121283;27;20202;-82
2023/08/12 00:29:54;;;;;;;12.80;7.28;;;21.50;99.90;;;;;;5152997;27;20208;-83
2023/08/12 00:32:21;;;;;;;10.70;7.28;;;21.60;99.90;;;;;;5152829;27;20233;-81
2023/08/12 00:34:48;;;;;;;12.10;6.82;;;21.50;99.90;;;;;;5139396;27;20217;-82
2023/08/12 00:37:16;;;;;;;12.63;7.35;;;21.60;99.90;;;;;;5147420;27;20206;-82
2023/08/12 00:39:43;;;;;;;14.02;7.28;;;21.50;99.90;;;;;;5152857;27;20218;-83
2023/08/12 00:42:10;;;;;;;12.75;7.10;;;21.50;99.90;;;;;;5134690;27;20307;-82
2023/08/12 00:44:37;;;;;;;9.35;6.25;;;21.50;99.90;;;;;;5153280;27;20556;-82
2023/08/12 00:47:04;;;;;;;10.10;6.75;;;21.50;99.90;;;;;;5148673;27;20522;-83
2023/08/12 00:49:32;;;;;;;10.98;6.85;;;21.60;99.90;;;;;;5140833;27;20210;-83
2023/08/12 00:52:00;;;;;;;12.38;6.95;;;21.60;99.90;;;;;;5150520;27;20194;-84
2023/08/12 00:54:28;;;;;;;14.65;7.60;;;21.50;99.90;;;;;;5153188;27;20692;-83
2023/08/12 00:56:55;;;;;;;13.75;7.32;;;21.60;99.90;;;;;;5138692;27;20207;-82
2023/08/12 00:59:23;;;;;;;11.57;7.35;;;21.60;99.90;;;;;;5151886;27;20218;-82
2023/08/12 01:01:51;;;;;;;12.48;7.05;;;21.60;99.90;;;;;;5152025;27;20270;-83
2023/08/12 01:04:17;;;;;;;12.68;6.78;;;21.60;99.90;;;;;;5152667;27;20228;-82
2023/08/12 01:06:45;;;;;;;11.27;7.38;;;21.60;99.90;;;;;;5140321;27;20218;-82
2023/08/12 01:09:12;;;;;;;14.98;7.68;;;21.60;99.90;;;;;;5152168;27;20233;-83
2023/08/12 01:11:50;;;;;;;13.60;7.43;;;21.50;99.90;;;;;;5152064;27;20267;-82
2023/08/12 01:14:41;;;;;;;15.40;7.60;;;21.60;99.90;;;;;;5152486;27;20550;-82
2023/08/12 01:17:11;;;;;;;15.40;8.38;;;21.50;99.90;;;;;;5149140;27;20263;-82
2023/08/12 01:19:40;;;;;;;13.90;7.75;;;21.40;99.90;;;;;;5142912;27;20324;-83
2023/08/12 01:22:12;;;;;;;15.73;8.50;;;21.60;99.90;;;;;;5152273;27;20196;-83
2023/08/12 01:24:41;;;;;;;17.15;8.65;;;21.60;99.90;;;;;;5152345;27;20288;-83
2023/08/12 01:27:11;;;;;;;12.68;8.50;;;21.60;99.90;;;;;;5145684;27;20218;-81
2023/08/12 01:29:45;;;;;;;16.83;8.38;;;21.60;99.90;;;;;;5125617;27;20251;-82
2023/08/12 01:32:20;;;;;;;16.90;9.15;;;21.50;99.90;;;;;;5151648;27;20237;-83
2023/08/12 01:35:17;;;;;;;16.00;8.63;;;21.50;99.90;;;;;;5151965;27;20254;-82
2023/08/12 01:37:45;;;;;;;15.95;8.63;;;21.50;99.90;;;;;;5139071;27;20789;-84
2023/08/12 01:40:15;;;;;;;17.40;8.63;;;21.50;99.90;;;;;;5152135;27;20278;-82
2023/08/12 01:42:42;;;;;;;15.10;8.38;;;21.50;99.90;;;;;;5133982;27;20270;-82
2023/08/12 01:45:10;;;;;;;14.70;7.82;;;21.50;99.90;;;;;;5151940;27;20205;-83
2023/08/12 01:47:37;;;;;;;13.23;8.02;;;21.50;99.90;;;;;;5129432;27;20201;-82
2023/08/12 01:50:06;;;;;;;15.77;8.02;;;21.50;99.90;;;;;;5151823;27;20237;-81
2023/08/12 01:52:33;;;;;;;13.93;8.88;;;21.50;99.90;;;;;;5151004;27;20225;-81
2023/08/12 01:55:00;;;;;;;15.25;8.60;;;21.50;99.90;;;;;;5133499;27;20206;-82
2023/08/12 01:57:27;;;;;;;14.85;8.80;;;21.50;99.90;;;;;;5132486;27;20209;-84
2023/08/12 01:59:53;;;;;;;14.20;7.97;;;21.50;99.90;;;;;;5151641;27;20625;-81
2023/08/12 02:02:22;;;;;;;14.25;8.20;;;21.40;99.90;;;;;;5152100;27;20594;-82
2023/08/12 02:04:49;;;;;;;15.70;8.20;;;21.40;99.90;;;;;;5152006;27;20198;-84
2023/08/12 02:07:16;;;;;;;17.33;9.63;;;21.30;99.90;;;;;;5151564;27;20205;-83
2023/08/12 02:09:43;;;;;;;15.18;9.30;;;21.30;99.90;;;;;;5131587;27;20205;-81
2023/08/12 02:12:13;;;;;;;13.95;8.65;;;21.30;99.90;;;;;;5135171;27;20220;-82
2023/08/12 02:14:39;;;;;;;14.52;8.52;;;21.30;99.90;;;;;;5156421;27;20210;-82
2023/08/12 02:17:06;;;;;;;15.45;8.95;;;21.20;99.90;;;;;;5177159;27;20174;-82
2023/08/12 02:19:34;;;;;;;15.98;9.32;;;21.30;99.90;;;;;;5176524;27;20185;-83
2023/08/12 02:22:04;;;;;;;16.00;9.40;;;21.20;99.90;;;;;;5175994;27;20196;-81
2023/08/12 02:24:31;;;;;;;16.80;9.07;;;21.20;99.90;;;;;;5152630;27;20204;-81
2023/08/12 02:26:58;;;;;;;16.67;10.13;;;21.20;99.90;;;;;;5171601;27;20230;-82
2023/08/12 02:29:24;;;;;;;14.73;9.50;;;21.10;99.90;;;;;;5137859;27;20198;-81
2023/08/12 02:31:51;;;;;;;20.33;9.77;;;21.10;99.90;;;;;;5150338;27;20237;-81
2023/08/12 02:34:18;;;;;;;16.20;9.15;;;21.20;99.90;;;;;;5150816;27;20250;-82
2023/08/12 02:36:45;;;;;;;18.80;10.82;;;21.10;99.90;;;;;;5150364;27;20306;-81
2023/08/12 02:39:12;;;;;;;21.85;11.35;;;21.20;99.90;;;;;;5151045;27;20208;-85
2023/08/12 02:41:39;;;;;;;19.23;10.98;;;21.20;99.90;;;;;;5122172;27;20788;-82
2023/08/12 02:44:06;;;;;;;18.13;10.18;;;21.20;99.90;;;;;;5144398;27;20939;-83
2023/08/12 02:46:33;;;;;;;18.85;9.95;;;21.10;99.90;;;;;;5147771;27;20190;-82
2023/08/12 02:49:00;;;;;;;22.45;11.15;;;21.10;99.90;;;;;;5148215;27;20206;-82
2023/08/12 02:51:27;;;;;;;18.55;11.55;;;21.20;99.90;;;;;;5140352;27;20281;-83
2023/08/12 02:53:54;;;;;;;22.30;11.65;;;21.10;99.90;;;;;;5139147;27;20201;-82
2023/08/12 02:56:21;;;;;;;22.17;11.60;;;21.10;99.90;;;;;;5148792;27;20195;-82
2023/08/12 02:58:48;;;;;;;19.35;11.65;;;21.10;99.90;;;;;;5117544;28;20193;-83
2023/08/12 03:01:15;;;;;;;21.60;12.07;;;21.10;99.90;;;;;;5143141;27;20629;-82
2023/08/12 03:03:42;;;;;;;21.10;12.35;;;21.10;99.90;;;;;;5122382;27;20281;-82
2023/08/12 03:06:09;;;;;;;23.45;12.50;;;21.10;99.90;;;;;;5123899;27;20190;-81
2023/08/12 03:08:36;;;;;;;26.98;12.90;;;21.10;99.90;;;;;;5152360;27;20252;-84
2023/08/12 03:11:04;;;;;;;25.65;13.32;;;21.10;99.90;;;;;;5132745;27;20191;-83
2023/08/12 03:13:31;;;;;;;26.45;13.10;;;21.10;99.90;;;;;;5145731;27;20305;-81
2023/08/12 03:15:58;;;;;;;25.98;13.07;;;21.10;99.90;;;;;;5134840;27;20224;-81
2023/08/12 03:18:25;;;;;;;28.27;15.05;;;21.10;99.90;;;;;;5168659;27;20189;-81
2023/08/12 03:20:54;;;;;;;25.45;14.35;;;21.10;99.90;;;;;;5167320;27;20298;-82
2023/08/12 03:23:21;;;;;;;29.58;14.52;;;21.10;99.90;;;;;;5148864;27;20848;-83
2023/08/12 03:25:48;;;;;;;26.00;13.77;;;21.10;99.90;;;;;;5146162;27;20202;-82
2023/08/12 03:28:16;;;;;;;32.17;16.10;;;21.10;99.90;;;;;;5150028;27;20318;-82
2023/08/12 03:30:50;;;;;;;26.42;14.57;;;21.10;99.90;;;;;;5155271;27;20213;-82
2023/08/12 03:33:17;;;;;;;22.60;14.63;;;21.00;99.90;;;;;;5156291;27;20278;-82
2023/08/12 03:35:48;;;;;;;26.85;14.18;;;21.00;99.90;;;;;;5155365;27;20210;-80
2023/08/12 03:38:15;;;;;;;33.65;16.20;;;21.10;99.90;;;;;;5161048;27;20233;-81
2023/08/12 03:40:42;;;;;;;25.27;14.75;;;21.10;99.90;;;;;;5157953;27;20225;-81
2023/08/12 03:43:09;;;;;;;28.98;14.90;;;21.10;99.90;;;;;;5137931;27;20222;-81
2023/08/12 03:45:43;;;;;;;29.20;15.55;;;21.10;99.90;;;;;;5149571;27;20199;-84
2023/08/12 03:48:11;;;;;;;27.58;14.75;;;21.10;99.90;;;;;;5120709;27;20192;-83
2023/08/12 03:50:39;;;;;;;29.00;15.07;;;21.10;99.90;;;;;;5154591;27;20217;-84
2023/08/12 03:53:06;;;;;;;30.73;15.90;;;21.00;99.90;;;;;;5129107;27;20643;-82
2023/08/12 03:55:33;;;;;;;29.65;15.75;;;21.10;99.90;;;;;;5127988;27;20202;-82
2023/08/12 03:58:00;;;;;;;32.00;16.13;;;21.10;99.90;;;;;;5134013;27;20228;-82
2023/08/12 04:00:28;;;;;;;29.52;15.82;;;21.10;99.90;;;;;;5151205;27;20259;-82
2023/08/12 04:02:55;;;;;;;35.80;16.27;;;21.10;99.90;;;;;;5134675;27;20190;-82
2023/08/12 04:05:23;;;;;;;30.33;17.02;;;21.10;99.90;;;;;;5140580;27;20546;-82
2023/08/12 04:07:50;;;;;;;29.60;15.60;;;21.00;99.90;;;;;;5147421;27;20197;-83
2023/08/12 04:10:17;;;;;;;34.50;16.20;;;21.00;99.90;;;;;;5147244;27;20253;-80
2023/08/12 04:12:45;;;;;;;31.45;16.58;;;21.00;99.90;;;;;;5147565;27;20222;-81
2023/08/12 04:15:12;;;;;;;32.05;16.73;;;21.00;99.90;;;;;;5144896;27;20198;-81
2023/08/12 04:17:40;;;;;;;33.92;17.20;;;21.10;99.90;;;;;;5148516;27;20653;-83
2023/08/12 04:20:09;;;;;;;29.80;15.88;;;21.00;99.90;;;;;;5144169;27;20190;-84
2023/08/12 04:22:36;;;;;;;30.58;16.17;;;21.00;99.90;;;;;;5146789;27;20597;-81
2023/08/12 04:25:03;;;;;;;30.38;17.67;;;21.00;99.90;;;;;;5150485;27;20328;-82
2023/08/12 04:27:30;;;;;;;32.72;17.45;;;21.00;99.90;;;;;;5143149;27;20300;-81
2023/08/12 04:29:57;;;;;;;38.30;17.80;;;21.00;99.90;;;;;;5152784;27;20198;-81
2023/08/12 04:32:24;;;;;;;34.03;17.55;;;21.10;99.90;;;;;;5152330;27;20225;-83
2023/08/12 04:34:51;;;;;;;29.52;17.20;;;21.00;99.90;;;;;;5142201;27;20198;-82
2023/08/12 04:37:17;;;;;;;32.17;16.90;;;21.00;99.90;;;;;;5150669;27;20223;-83
2023/08/12 04:39:45;;;;;;;35.15;17.85;;;21.00;99.90;;;;;;5130885;27;20545;-82
2023/08/12 04:42:12;;;;;;;32.72;17.33;;;21.00;99.90;;;;;;5153327;27;20320;-82
2023/08/12 04:44:40;;;;;;;35.85;17.38;;;21.10;99.90;;;;;;5153207;27;20208;-84
2023/08/12 04:47:07;;;;;;;35.97;18.25;;;21.00;99.90;;;;;;5129295;27;20205;-83
2023/08/12 04:49:33;;;;;;;30.83;16.90;;;21.10;99.90;;;;;;5153390;27;20465;-83
2023/08/12 04:52:00;;;;;;;37.35;18.85;;;21.10;99.90;;;;;;5144865;27;20686;-80
2023/08/12 04:54:27;;;;;;;33.15;18.00;;;21.00;99.90;;;;;;5146593;27;20206;-82
2023/08/12 04:56:56;;;;;;;35.45;17.50;;;21.10;99.90;;;;;;5143521;27;20247;-81
2023/08/12 04:59:22;;;;;;;34.05;18.13;;;21.10;99.90;;;;;;5145149;27;20232;-83
2023/08/12 05:01:49;;;;;;;39.13;18.52;;;21.10;99.90;;;;;;5147609;27;20606;-82
2023/08/12 05:04:30;;;;;;;34.38;17.27;;;21.20;99.90;;;;;;5131101;27;20305;-81
2023/08/12 05:06:57;;;;;;;38.67;19.33;;;21.30;99.90;;;;;;5120702;27;20230;-83
2023/08/12 05:09:24;;;;;;;33.50;17.85;;;21.30;99.90;;;;;;5145850;27;20201;-84
2023/08/12 05:11:51;;;;;;;33.80;18.48;;;21.40;99.90;;;;;;5150564;27;20225;-81
2023/08/12 05:14:18;;;;;;;32.45;18.13;;;21.50;99.90;;;;;;5144657;27;20282;-81
2023/08/12 05:16:45;;;;;;;30.88;17.88;;;21.60;99.90;;;;;;5125414;27;20694;-83
2023/08/12 05:19:11;;;;;;;30.33;17.17;;;21.70;99.90;;;;;;5149595;27;20274;-85
2023/08/12 05:21:38;;;;;;;36.03;19.23;;;21.80;99.90;;;;;;5145044;27;20229;-82
2023/08/12 05:24:06;;;;;;;28.98;17.75;;;21.80;99.90;;;;;;5143940;27;20205;-81
2023/08/12 05:26:33;;;;;;;30.55;16.88;;;22.00;99.90;;;;;;5141249;27;20214;-80
2023/08/12 05:29:09;;;;;;;31.30;17.63;;;22.00;99.90;;;;;;5144363;27;20206;-82
2023/08/12 05:31:37;;;;;;;29.25;16.38;;;22.10;99.90;;;;;;5153170;27;20573;-83
2023/08/12 05:34:04;;;;;;;26.75;16.70;;;22.10;99.90;;;;;;5155767;27;20247;-81
2023/08/12 05:36:31;;;;;;;30.35;17.20;;;22.10;99.90;;;;;;5143570;27;20231;-83
2023/08/12 05:38:58;;;;;;;28.10;16.10;;;22.10;99.90;;;;;;5153418;27;20201;-81
2023/08/12 05:41:25;;;;;;;28.67;16.60;;;22.00;99.90;;;;;;5138468;27;20853;-80
2023/08/12 05:43:52;;;;;;;29.75;16.83;;;22.00;99.90;;;;;;5153630;27;20190;-80
2023/08/12 05:46:19;;;;;;;30.35;17.08;;;21.90;99.90;;;;;;5151657;27;20598;-82
2023/08/12 05:48:46;;;;;;;32.83;17.58;;;22.00;99.90;;;;;;5145004;27;20235;-82
2023/08/12 05:51:13;;;;;;;28.83;16.33;;;21.90;99.90;;;;;;5146735;27;20212;-81
2023/08/12 05:53:40;;;;;;;31.67;17.38;;;21.90;99.90;;;;;;5157321;27;20205;-82
2023/08/12 05:56:06;;;;;;;29.92;16.85;;;21.90;99.90;;;;;;5156609;27;20202;-82
2023/08/12 05:58:33;;;;;;;31.25;16.65;;;21.80;99.90;;;;;;5139765;27;20226;-85
2023/08/12 06:01:00;;;;;;;31.52;18.73;;;21.80;99.90;;;;;;5143045;27;20278;-80
2023/08/12 06:03:27;;;;;;;32.15;17.98;;;21.80;99.90;;;;;;5144846;27;20212;-81
2023/08/12 06:05:54;;;;;;;33.55;18.45;;;21.80;99.90;;;;;;5142821;27;20225;-84
2023/08/12 06:08:21;;;;;;;33.97;16.92;;;21.80;99.90;;;;;;5138175;27;20213;-81
2023/08/12 06:10:48;;;;;;;32.58;18.08;;;21.70;99.90;;;;;;5140598;27;20285;-80
2023/08/12 06:13:15;;;;;;;32.00;17.42;;;21.70;99.90;;;;;;5142392;27;20265;-82
2023/08/12 06:15:42;;;;;;;30.85;17.50;;;21.70;99.90;;;;;;5142889;27;20202;-83
2023/08/12 06:18:10;;;;;;;28.23;16.83;;;21.70;99.90;;;;;;5143320;27;20262;-82
2023/08/12 06:20:38;;;;;;;30.42;16.25;;;21.60;99.90;;;;;;5141622;27;20197;-84
2023/08/12 06:23:05;;;;;;;30.58;16.92;;;21.60;99.90;;;;;;5143314;27;20246;-82
2023/08/12 06:25:31;;;;;;;33.17;16.45;;;21.50;99.90;;;;;;5137693;27;20198;-83
2023/08/12 06:27:58;;;;;;;28.20;16.00;;;21.50;99.90;;;;;;5141410;27;20259;-83
2023/08/12 06:30:25;;;;;;;29.98;15.73;;;21.50;99.90;;;;;;5138031;27;20226;-83
2023/08/12 06:32:52;;;;;;;30.73;18.25;;;21.40;99.90;;;;;;5140316;27;20701;-85
2023/08/12 06:35:19;;;;;;;28.83;16.85;;;21.50;99.90;;;;;;5123261;27;20221;-82
2023/08/12 06:37:46;;;;;;;28.70;16.42;;;21.40;99.90;;;;;;5139477;27;20202;-83
2023/08/12 06:40:12;;;;;;;30.98;16.20;;;21.40;99.90;;;;;;5142138;27;20190;-82
2023/08/12 06:42:39;;;;;;;29.58;15.50;;;21.50;99.90;;;;;;5139319;27;20282;-84
2023/08/12 06:45:07;;;;;;;26.05;15.38;;;21.50;99.90;;;;;;5135202;27;20206;-84
2023/08/12 06:47:34;;;;;;;24.98;15.23;;;21.40;99.90;;;;;;5142598;27;20642;-86
2023/08/12 06:50:01;;;;;;;26.85;15.82;;;21.40;99.90;;;;;;5140537;27;20194;-86
2023/08/12 06:52:28;;;;;;;28.23;15.90;;;21.40;99.90;;;;;;5140536;27;20582;-83
2023/08/12 06:54:55;;;;;;;29.60;14.70;;;21.40;99.90;;;;;;5138687;27;20252;-83
2023/08/12 06:57:22;;;;;;;25.13;14.90;;;21.40;99.90;;;;;;5119400;27;20214;-87
2023/08/12 06:59:49;;;;;;;27.45;15.55;;;21.30;99.90;;;;;;5133444;27;20205;-87
2023/08/12 07:02:16;;;;;;;26.58;14.80;;;21.40;99.90;;;;;;5134173;27;20252;-87
2023/08/12 07:04:43;;;;;;;27.90;14.90;;;21.30;99.90;;;;;;5155027;27;20187;-89
2023/08/12 07:07:10;;;;;;;29.27;15.75;;;21.30;99.90;;;;;;5139596;27;20210;-88
2023/08/12 07:09:40;;;;;;;29.52;15.30;;;21.30;99.90;;;;;;5136687;27;20198;-88
2023/08/12 07:12:07;;;;;;;23.65;15.10;;;21.30;99.90;;;;;;5121205;27;20634;-88
2023/08/12 07:14:34;;;;;;;30.13;14.95;;;21.30;99.90;;;;;;5142578;27;20205;-88
2023/08/12 07:17:01;;;;;;;24.77;14.50;;;21.30;99.90;;;;;;5125513;27;20203;-92
2023/08/12 07:19:28;;;;;;;23.60;14.10;;;21.40;99.90;;;;;;5124088;27;20217;-89
2023/08/12 07:21:56;;;;;;;24.05;13.20;;;21.40;99.90;;;;;;5131955;27;20213;-88
2023/08/12 07:24:23;;;;;;;22.63;13.68;;;21.30;99.90;;;;;;5159478;27;20201;-87
2023/08/12 07:26:51;;;;;;;19.48;13.48;;;21.40;99.90;;;;;;5136403;27;20214;-89
2023/08/12 07:29:18;;;;;;;21.27;12.45;;;21.30;99.90;;;;;;5149646;27;20201;-88
2023/08/12 07:31:45;;;;;;;22.73;13.10;;;21.30;99.90;;;;;;5126222;27;20206;-87
2023/08/12 07:34:15;;;;;;;21.40;12.63;;;21.20;99.90;;;;;;5115448;28;20674;-87
2023/08/12 07:36:42;;;;;;;19.85;12.10;;;21.30;99.90;;;;;;5119507;27;20215;-87
2023/08/12 07:39:09;;;;;;;15.15;10.07;;;21.30;99.90;;;;;;5127726;28;20202;-84
2023/08/12 07:41:37;;;;;;;15.07;9.45;;;21.20;99.90;;;;;;5115827;28;20755;-83
2023/08/12 07:44:05;;;;;;;14.70;9.18;;;21.20;99.90;;;;;;5118113;28;20234;-82
2023/08/12 07:46:31;;;;;;;13.82;8.95;;;21.20;99.90;;;;;;5110326;28;20319;-80
2023/08/12 07:48:58;;;;;;;11.82;8.07;;;21.10;99.90;;;;;;5127963;27;20248;-84
2023/08/12 07:51:25;;;;;;;10.60;7.35;;;21.20;99.90;;;;;;5130529;27;20202;-83
2023/08/12 07:53:52;;;;;;;10.38;7.35;;;21.10;99.90;;;;;;5132734;27;20203;-83
2023/08/12 07:56:21;;;;;;;8.45;6.20;;;21.00;99.90;;;;;;5118686;27;20191;-82
2023/08/12 07:58:51;;;;;;;7.63;5.90;;;21.00;99.90;;;;;;5125524;27;20198;-83
2023/08/12 08:01:18;;;;;;;10.80;6.50;;;21.10;99.90;;;;;;5120957;27;21417;-84
2023/08/12 08:03:45;;;;;;;9.70;5.60;;;21.00;99.90;;;;;;5121717;27;20198;-84
2023/08/12 08:06:12;;;;;;;6.63;4.47;;;21.00;99.90;;;;;;5131969;27;20194;-83
2023/08/12 08:08:39;;;;;;;6.97;4.32;;;21.00;99.90;;;;;;5119303;27;20289;-81
2023/08/12 08:11:06;;;;;;;6.28;4.00;;;21.00;99.90;;;;;;5132626;27;20202;-80
2023/08/12 08:13:33;;;;;;;7.18;4.13;;;20.90;99.90;;;;;;5128238;27;20678;-79
2023/08/12 08:15:59;;;;;;;8.02;4.30;;;20.90;99.90;;;;;;5121493;27;20299;-79
2023/08/12 08:18:26;;;;;;;5.65;3.83;;;20.80;99.90;;;;;;5123303;27;20286;-78
2023/08/12 08:20:53;;;;;;;5.45;3.28;;;20.80;99.90;;;;;;5122673;27;20195;-78
2023/08/12 08:23:20;;;;;;;8.00;3.75;;;20.60;99.90;;;;;;5125957;27;20223;-78
2023/08/12 08:25:48;;;;;;;7.25;3.72;;;20.50;99.90;;;;;;5115790;27;20281;-79
2023/08/12 08:28:14;;;;;;;6.72;3.47;;;20.50;99.90;;;;;;5119356;27;20298;-79
2023/08/12 08:30:41;;;;;;;7.07;3.30;;;20.50;99.90;;;;;;5129105;27;20194;-79
2023/08/12 08:33:08;;;;;;;7.82;3.28;;;20.50;99.90;;;;;;5136614;27;20538;-78
2023/08/12 08:35:35;;;;;;;6.30;3.67;;;20.40;99.90;;;;;;5147946;27;20677;-77
2023/08/12 08:38:02;;;;;;;5.50;3.92;;;20.40;99.90;;;;;;5141905;27;20199;-79
2023/08/12 08:40:29;;;;;;;8.10;4.07;;;20.40;99.90;;;;;;5144194;27;20220;-78
2023/08/12 08:43:02;;;;;;;4.65;3.38;;;20.40;99.90;;;;;;5144910;27;20214;-79
2023/08/12 08:45:33;;;;;;;4.75;3.50;;;20.50;99.90;;;;;;5139868;27;20194;-77
2023/08/12 08:48:01;;;;;;;5.65;3.60;;;20.60;99.90;;;;;;5152187;27;20190;-79
2023/08/12 08:50:32;;;;;;;6.45;4.20;;;20.60;99.90;;;;;;5145609;27;20680;-78
2023/08/12 08:53:00;;;;;;;5.90;3.28;;;20.60;99.90;;;;;;5146345;27;20211;-79
2023/08/12 08:55:27;;;;;;;5.97;3.47;;;20.60;99.90;;;;;;5147039;27;20186;-79
2023/08/12 08:57:56;;;;;;;5.30;3.75;;;20.70;99.90;;;;;;5132708;27;20608;-81
2023/08/12 09:00:28;;;;;;;5.70;3.88;;;20.70;99.90;;;;;;5143051;27;20209;-80
2023/08/12 09:02:57;;;;;;;4.80;3.28;;;20.70;99.90;;;;;;5128352;27;20226;-81
2023/08/12 09:05:25;;;;;;;5.78;3.60;;;20.80;99.90;;;;;;5152408;27;20202;-80
2023/08/12 09:07:54;;;;;;;5.47;3.45;;;20.90;99.90;;;;;;5151851;27;20201;-80
2023/08/12 09:10:22;;;;;;;4.03;3.00;;;20.90;99.90;;;;;;5137144;27;20293;-83
2023/08/12 09:12:49;;;;;;;4.03;3.00;;;21.00;99.90;;;;;;5150487;27;20210;-85
2023/08/12 09:15:17;;;;;;;6.15;3.03;;;21.10;99.90;;;;;;5143029;27;20268;-84
2023/08/12 09:17:44;;;;;;;5.43;3.00;;;21.10;99.90;;;;;;5134049;27;20205;-84
2023/08/12 09:20:11;;;;;;;3.70;2.70;;;21.10;99.90;;;;;;5133335;27;20233;-85
2023/08/12 09:22:43;;;;;;;4.15;2.53;;;21.10;99.90;;;;;;5134383;27;20221;-86
2023/08/12 09:25:10;;;;;;;4.10;2.17;;;21.00;99.90;;;;;;5149011;27;20205;-86
2023/08/12 09:27:40;;;;;;;4.13;2.70;;;21.00;99.90;;;;;;5124404;27;20232;-84
2023/08/12 09:30:11;;;;;;;3.20;2.40;;;21.00;99.90;;;;;;5134207;27;20194;-84
2023/08/12 09:33:11;;;;;;;4.00;1.90;;;21.00;99.90;;;;;;5134629;27;20241;-86
2023/08/12 09:35:42;;;;;;;3.05;1.83;;;21.00;99.90;;;;;;5122467;27;20202;-88
2023/08/12 09:38:15;;;;;;;3.85;2.53;;;21.10;99.90;;;;;;5138526;27;20650;-86
2023/08/12 09:40:42;;;;;;;2.60;2.25;;;21.20;99.90;;;;;;5132661;27;20466;-87
2023/08/12 09:43:11;;;;;;;2.55;1.80;;;21.60;99.90;;;;;;5132743;27;20309;-90
2023/08/12 09:45:41;;;;;;;2.60;2.22;;;21.70;99.90;;;;;;5135309;27;20285;-88
2023/08/12 09:48:09;;;;;;;1.88;1.67;;;21.80;99.90;;;;;;5151989;27;20294;-85
2023/08/12 09:50:37;;;;;;;2.65;1.58;;;22.00;99.90;;;;;;5134987;27;20206;-85
2023/08/12 09:53:04;;;;;;;1.50;1.40;;;21.80;99.90;;;;;;5150842;27;20228;-86
2023/08/12 09:55:34;;;;;;;1.50;1.40;;;21.90;99.90;;;;;;5142528;27;20531;-87
2023/08/12 09:58:04;;;;;;;1.80;1.70;;;22.00;99.90;;;;;;5134032;27;20214;-85
2023/08/12 10:00:31;;;;;;;4.28;1.40;;;22.00;99.90;;;;;;5134390;27;20638;-86
2023/08/12 10:03:00;;;;;;;1.63;1.52;;;22.00;99.90;;;;;;5132118;27;20689;-85
2023/08/12 10:05:30;;;;;;;2.17;1.60;;;22.00;99.90;;;;;;5150858;27;20198;-86
2023/08/12 10:07:58;;;;;;;2.22;1.60;;;22.00;99.90;;;;;;5155414;27;20205;-85
2023/08/12 10:10:25;;;;;;;2.65;1.83;;;22.00;99.90;;;;;;5135422;27;20205;-87
2023/08/12 10:12:52;;;;;;;2.00;1.80;;;22.00;99.90;;;;;;5129277;27;20218;-83
2023/08/12 10:15:21;;;;;;;0.90;0.90;;;21.90;99.90;;;;;;5149421;27;20258;-84
2023/08/12 10:17:50;;;;;;;1.60;1.20;;;21.90;99.90;;;;;;5150227;27;20487;-84
2023/08/12 10:20:22;;;;;;;1.00;0.95;;;22.10;99.90;;;;;;5130616;27;20638;-87
2023/08/12 10:22:53;;;;;;;0.93;0.90;;;22.10;99.90;;;;;;5129253;27;20578;-88
2023/08/12 10:25:21;;;;;;;0.95;0.80;;;22.30;99.90;;;;;;5121814;27;20198;-89
2023/08/12 10:27:49;;;;;;;1.00;0.75;;;22.40;99.90;;;;;;5129200;27;20217;-89
2023/08/12 10:30:16;;;;;;;0.82;0.77;;;22.40;99.90;;;;;;5129399;27;20791;-89
2023/08/12 10:32:45;;;;;;;0.80;0.80;;;22.40;99.90;;;;;;5128860;27;20254;-87
2023/08/12 10:35:12;;;;;;;1.40;0.50;;;22.50;99.90;;;;;;5129129;27;20289;-87
2023/08/12 10:37:40;;;;;;;0.50;0.50;;;22.60;99.90;;;;;;5116193;27;20555;-86
2023/08/12 10:40:20;;;;;;;0.47;0.47;;;22.40;99.90;;;;;;5130181;27;20217;-87
2023/08/12 10:42:48;;;;;;;0.60;0.60;;;22.30;99.90;;;;;;5130342;27;20297;-86
2023/08/12 10:45:17;;;;;;;1.33;0.40;;;22.30;99.90;;;;;;5128001;27;20202;-88
2023/08/12 10:47:51;;;;;;;1.48;0.82;;;22.00;99.90;;;;;;5129829;28;20547;-86
2023/08/12 10:50:21;;;;;;;0.80;0.80;;;21.70;99.90;;;;;;5134886;27;20327;-90
2023/08/12 10:52:52;;;;;;;2.25;0.90;;;21.50;99.90;;;;;;5133066;28;20689;-88
2023/08/12 10:55:24;;;;;;;1.33;1.00;;;21.40;99.90;;;;;;5134923;28;20259;-85
2023/08/12 10:57:54;;;;;;;1.98;1.10;;;21.30;99.90;;;;;;5134746;28;20237;-89
2023/08/12 11:00:23;;;;;;;1.45;1.20;;;21.40;99.90;;;;;;5114943;28;20203;-89
2023/08/12 11:02:52;;;;;;;1.48;1.10;;;21.60;99.90;;;;;;5134994;27;20269;-90
2023/08/12 11:05:20;;;;;;;1.75;1.00;;;21.80;99.90;;;;;;5135424;28;20202;-89
2023/08/12 11:08:01;;;;;;;2.30;1.00;;;21.90;99.90;;;;;;5134330;28;20198;-89
2023/08/12 11:10:33;;;;;;;2.30;1.05;;;22.00;99.90;;;;;;5136693;28;20213;-90
2023/08/12 11:13:02;;;;;;;2.15;1.00;;;22.10;99.90;;;;;;5135032;27;20289;-90
2023/08/12 11:15:46;;;;;;;2.25;1.50;;;22.20;99.90;;;;;;5129953;28;20206;-91
2023/08/12 11:18:18;;;;;;;2.92;1.27;;;22.40;99.90;;;;;;5117758;28;20205;-89
2023/08/12 11:20:47;;;;;;;1.90;1.02;;;22.70;99.90;;;;;;5136984;27;20214;-89
2023/08/12 11:23:16;;;;;;;2.03;1.10;;;22.80;99.90;;;;;;5135479;28;20317;-91
2023/08/12 11:25:49;;;;;;;2.28;1.08;;;23.00;99.90;;;;;;5131657;27;20281;-90
2023/08/12 11:28:21;;;;;;;2.47;1.15;;;23.00;99.90;;;;;;5139834;27;20777;-89
2023/08/12 11:30:50;;;;;;;4.60;1.48;;;22.90;99.90;;;;;;5126920;27;20548;-88
2023/08/12 11:33:18;;;;;;;2.08;1.13;;;23.00;99.90;;;;;;5145795;27;20799;-88
2023/08/12 11:35:45;;;;;;;5.03;1.75;;;23.10;99.90;;;;;;5155269;27;20243;-85
2023/08/12 11:38:14;;;;;;;5.40;1.60;;;23.20;99.90;;;;;;5127455;27;20249;-87
2023/08/12 11:40:43;;;;;;;3.65;1.63;;;23.00;99.90;;;;;;5143796;27;20213;-85
2023/08/12 11:43:11;;;;;;;3.95;1.50;;;23.00;99.90;;;;;;5127646;27;20265;-87
2023/08/12 11:45:41;;;;;;;2.47;1.10;;;22.90;99.90;;;;;;5138704;27;20341;-88
2023/08/12 11:48:10;;;;;;;3.10;1.30;;;23.00;99.90;;;;;;5129581;27;20792;-84
2023/08/12 11:50:37;;;;;;;3.85;1.42;;;23.00;99.90;;;;;;5146457;27;20211;-85
2023/08/12 11:53:04;;;;;;;2.53;1.27;;;23.00;99.90;;;;;;5147732;27;20201;-84
2023/08/12 11:55:31;;;;;;;3.15;1.38;;;23.30;99.90;;;;;;5134473;27;20208;-85
2023/08/12 11:57:58;;;;;;;4.38;1.50;;;23.20;99.90;;;;;;5149407;27;20218;-85
2023/08/12 12:00:25;;;;;;;3.83;1.65;;;23.20;99.90;;;;;;5128520;27;20389;-84
2023/08/12 12:02:56;;;;;;;5.70;1.85;;;23.30;99.90;;;;;;5129024;27;20278;-85
2023/08/12 12:05:29;;;;;;;4.80;1.50;;;23.50;99.90;;;;;;5129175;27;20198;-83
2023/08/12 12:07:56;;;;;;;5.18;1.75;;;23.50;99.90;;;;;;5136453;27;20205;-82
2023/08/12 12:10:29;;;;;;;4.72;1.50;;;23.50;99.90;;;;;;5136876;27;20205;-83
2023/08/12 12:13:01;;;;;;;3.65;1.42;;;23.30;99.90;;;;;;5135777;27;20221;-80
2023/08/12 12:15:28;;;;;;;3.45;1.50;;;23.30;99.90;;;;;;5131363;27;20580;-79
2023/08/12 12:17:55;;;;;;;3.40;1.45;;;23.30;99.90;;;;;;5153265;27;20626;-81
2023/08/12 12:20:22;;;;;;;6.45;1.60;;;23.40;99.90;;;;;;5154672;27;20658;-85
2023/08/12 12:22:50;;;;;;;3.83;1.65;;;23.60;99.90;;;;;;5153823;27;20232;-84
2023/08/12 12:25:20;;;;;;;4.80;1.52;;;23.80;99.90;;;;;;5132882;27;20198;-86
2023/08/12 12:27:47;;;;;;;6.10;1.83;;;23.90;99.90;;;;;;5122469;27;20220;-84
2023/08/12 12:30:16;;;;;;;5.40;1.50;;;24.00;99.90;;;;;;5118094;27;20653;-83
2023/08/12 12:32:43;;;;;;;4.80;1.50;;;24.10;99.90;;;;;;5140869;27;20619;-83
2023/08/12 12:35:11;;;;;;;3.75;1.95;;;24.30;99.90;;;;;;5145110;27;20617;-83
2023/08/12 12:37:38;;;;;;;3.92;1.23;;;24.40;99.90;;;;;;5141004;27;20243;-83
2023/08/12 12:40:05;;;;;;;3.10;1.42;;;24.50;99.90;;;;;;5139089;27;20293;-83